Sainte-Agathe-Des-Monts, Canada
Current Conditions -  °F | °C
As of 1:00 AM on Thursday 29 Jan 2015 (Local Time) from CYMX Reporting Station
Clear Clear  
Wind Chill: -4°   Ceiling: Unl
Heat Index:   Visibility: 25mi
Dew Point: -8°   Wind: 5mph
Humidity: 56%   Direction: 260°W
Pressure: 30.29"   Gusts: NA
Location:  46.03°N, 74.28°W
Report Text: CYMX 290600Z 26004KT 25SM SKC M15/M22 A3029 RMK SLP264
Loading
Personal Weather Stations






























Interactive Weather Map New forecast layout! Learn more

10-Day Weather Forecast

Advertisements
Track Severe Weather on mobile